sensor_id;sensor_type;location;lat;lon;timestamp;noise_LAeq;noise_LA_min;noise_LA_max;noise_LA01;noise_LA95
66452;Laerm;56831;52.380;4.744;2023-02-02T00:00:02;33.88;31.31;41.23;;
66452;Laerm;56831;52.380;4.744;2023-02-02T00:00:13;37.78;31.72;49.34;;
66452;Laerm;56831;52.380;4.744;2023-02-02T00:00:25;49.53;31.93;61.09;;
66452;Laerm;56831;52.380;4.744;2023-02-02T00:00:35;39.99;32.26;52.24;;
66452;Laerm;56831;52.380;4.744;2023-02-02T00:00:46;35.10;31.60;50.13;;
66452;Laerm;56831;52.380;4.744;2023-02-02T00:00:56;33.62;31.85;36.88;;
66452;Laerm;56831;52.380;4.744;2023-02-02T00:01:07;34.55;31.73;42.02;;
66452;Laerm;56831;52.380;4.744;2023-02-02T00:01:19;36.22;31.61;47.96;;
66452;Laerm;56831;52.380;4.744;2023-02-02T00:01:30;33.04;31.01;41.23;;
66452;Laerm;56831;52.380;4.744;2023-02-02T00:01:46;41.89;31.18;56.91;;
66452;Laerm;56831;52.380;4.744;2023-02-02T00:01:58;33.37;31.12;38.92;;
66452;Laerm;56831;52.380;4.744;2023-02-02T00:02:11;33.30;31.22;42.51;;
66452;Laerm;56831;52.380;4.744;2023-02-02T00:02:23;32.67;30.83;39.17;;
66452;Laerm;56831;52.380;4.744;2023-02-02T00:02:33;33.91;30.96;47.01;;
66452;Laerm;56831;52.380;4.744;2023-02-02T00:02:45;39.30;31.13;54.80;;
66452;Laerm;56831;52.380;4.744;2023-02-02T00:02:56;42.64;31.59;59.08;;
66452;Laerm;56831;52.380;4.744;2023-02-02T00:03:07;33.38;31.22;40.12;;
66452;Laerm;56831;52.380;4.744;2023-02-02T00:03:19;33.33;31.36;39.55;;
66452;Laerm;56831;52.380;4.744;2023-02-02T00:03:36;33.36;30.86;44.37;;
66452;Laerm;56831;52.380;4.744;2023-02-02T00:03:47;32.07;30.63;34.10;;
66452;Laerm;56831;52.380;4.744;2023-02-02T00:03:59;32.09;30.09;34.48;;
66452;Laerm;56831;52.380;4.744;2023-02-02T00:04:19;32.95;31.36;35.34;;
66452;Laerm;56831;52.380;4.744;2023-02-02T00:04:31;32.84;31.16;38.86;;
66452;Laerm;56831;52.380;4.744;2023-02-02T00:04:43;33.92;30.69;45.44;;
66452;Laerm;56831;52.380;4.744;2023-02-02T00:04:53;31.80;30.54;32.88;;
66452;Laerm;56831;52.380;4.744;2023-02-02T00:05:09;32.71;30.19;44.58;;
66452;Laerm;56831;52.380;4.744;2023-02-02T00:05:21;34.04;30.59;47.39;;
66452;Laerm;56831;52.380;4.744;2023-02-02T00:05:35;34.19;31.77;42.87;;
66452;Laerm;56831;52.380;4.744;2023-02-02T00:05:49;43.21;32.01;60.25;;
66452;Laerm;56831;52.380;4.744;2023-02-02T00:06:00;34.98;31.72;46.93;;
66452;Laerm;56831;52.380;4.744;2023-02-02T00:06:11;40.19;32.89;54.60;;
66452;Laerm;56831;52.380;4.744;2023-02-02T00:06:23;38.77;35.00;45.18;;
66452;Laerm;56831;52.380;4.744;2023-02-02T00:06:34;37.65;34.66;46.61;;
66452;Laerm;56831;52.380;4.744;2023-02-02T00:06:45;37.27;33.85;55.34;;
66452;Laerm;56831;52.380;4.744;2023-02-02T00:06:57;35.92;33.61;50.60;;
66452;Laerm;56831;52.380;4.744;2023-02-02T00:07:19;36.72;32.40;47.35;;
66452;Laerm;56831;52.380;4.744;2023-02-02T00:07:32;35.97;31.68;46.35;;
66452;Laerm;56831;52.380;4.744;2023-02-02T00:07:43;33.03;31.23;37.19;;
66452;Laerm;56831;52.380;4.744;2023-02-02T00:07:53;32.60;30.96;38.76;;
66452;Laerm;56831;52.380;4.744;2023-02-02T00:08:03;41.88;32.94;54.42;;
66452;Laerm;56831;52.380;4.744;2023-02-02T00:08:21;33.44;31.41;36.93;;
66452;Laerm;56831;52.380;4.744;2023-02-02T00:08:31;34.20;32.12;37.67;;
66452;Laerm;56831;52.380;4.744;2023-02-02T00:08:52;37.49;33.65;45.73;;
66452;Laerm;56831;52.380;4.744;2023-02-02T00:09:02;41.26;37.40;55.55;;
66452;Laerm;56831;52.380;4.744;2023-02-02T00:09:15;41.45;38.66;52.31;;
66452;Laerm;56831;52.380;4.744;2023-02-02T00:09:27;41.77;38.30;51.49;;
66452;Laerm;56831;52.380;4.744;2023-02-02T00:09:40;40.75;37.83;51.13;;
66452;Laerm;56831;52.380;4.744;2023-02-02T00:09:51;41.00;35.10;58.04;;
66452;Laerm;56831;52.380;4.744;2023-02-02T00:10:01;37.86;35.15;54.88;;
66452;Laerm;56831;52.380;4.744;2023-02-02T00:10:11;37.59;35.80;40.28;;
66452;Laerm;56831;52.380;4.744;2023-02-02T00:10:22;36.65;33.22;54.83;;
66452;Laerm;56831;52.380;4.744;2023-02-02T00:10:32;34.89;32.80;45.57;;
66452;Laerm;56831;52.380;4.744;2023-02-02T00:10:49;39.33;32.69;51.93;;
66452;Laerm;56831;52.380;4.744;2023-02-02T00:11:00;33.68;31.63;47.42;;
66452;Laerm;56831;52.380;4.744;2023-02-02T00:11:11;43.47;33.02;58.59;;
66452;Laerm;56831;52.380;4.744;2023-02-02T00:11:23;36.01;31.04;47.75;;
66452;Laerm;56831;52.380;4.744;2023-02-02T00:11:39;39.56;32.06;53.37;;
66452;Laerm;56831;52.380;4.744;2023-02-02T00:11:50;47.17;36.15;57.78;;
66452;Laerm;56831;52.380;4.744;2023-02-02T00:12:00;44.76;34.69;63.38;;
66452;Laerm;56831;52.380;4.744;2023-02-02T00:12:11;44.23;34.54;55.76;;
66452;Laerm;56831;52.380;4.744;2023-02-02T00:12:21;45.18;33.75;60.09;;
66452;Laerm;56831;52.380;4.744;2023-02-02T00:12:32;54.98;35.71;68.63;;
66452;Laerm;56831;52.380;4.744;2023-02-02T00:13:01;49.82;34.97;65.48;;
66452;Laerm;56831;52.380;4.744;2023-02-02T00:13:12;38.36;33.56;52.36;;
66452;Laerm;56831;52.380;4.744;2023-02-02T00:13:23;36.27;33.98;45.17;;
66452;Laerm;56831;52.380;4.744;2023-02-02T00:13:34;39.70;34.77;52.17;;
66452;Laerm;56831;52.380;4.744;2023-02-02T00:13:44;39.26;34.23;54.61;;
66452;Laerm;56831;52.380;4.744;2023-02-02T00:13:56;39.32;33.84;53.81;;
66452;Laerm;56831;52.380;4.744;2023-02-02T00:14:08;38.35;34.93;47.29;;
66452;Laerm;56831;52.380;4.744;2023-02-02T00:14:18;41.97;35.20;55.98;;
66452;Laerm;56831;52.380;4.744;2023-02-02T00:14:29;40.68;34.86;50.43;;
66452;Laerm;56831;52.380;4.744;2023-02-02T00:14:39;38.77;34.92;47.50;;
66452;Laerm;56831;52.380;4.744;2023-02-02T00:14:50;39.51;35.17;52.38;;
66452;Laerm;56831;52.380;4.744;2023-02-02T00:15:00;42.67;33.55;57.03;;
66452;Laerm;56831;52.380;4.744;2023-02-02T00:15:18;35.44;32.11;48.69;;
66452;Laerm;56831;52.380;4.744;2023-02-02T00:15:29;49.96;31.88;66.52;;
66452;Laerm;56831;52.380;4.744;2023-02-02T00:15:40;36.98;31.59;47.50;;
66452;Laerm;56831;52.380;4.744;2023-02-02T00:15:51;33.90;31.47;39.99;;
66452;Laerm;56831;52.380;4.744;2023-02-02T00:16:37;34.06;31.65;41.63;;
66452;Laerm;56831;52.380;4.744;2023-02-02T00:16:47;33.59;31.39;40.47;;
66452;Laerm;56831;52.380;4.744;2023-02-02T00:16:50;37.29;31.93;52.17;;
66452;Laerm;56831;52.380;4.744;2023-02-02T00:17:00;35.34;32.29;42.25;;
66452;Laerm;56831;52.380;4.744;2023-02-02T00:17:11;40.94;34.61;53.65;;
66452;Laerm;56831;52.380;4.744;2023-02-02T00:17:21;37.74;32.79;44.91;;
66452;Laerm;56831;52.380;4.744;2023-02-02T00:17:31;43.53;34.54;52.21;;
66452;Laerm;56831;52.380;4.744;2023-02-02T00:17:54;37.13;31.38;50.26;;
66452;Laerm;56831;52.380;4.744;2023-02-02T00:18:05;33.49;30.33;39.30;;
66452;Laerm;56831;52.380;4.744;2023-02-02T00:18:22;32.91;30.56;42.22;;
66452;Laerm;56831;52.380;4.744;2023-02-02T00:18:32;33.86;30.86;43.87;;
66452;Laerm;56831;52.380;4.744;2023-02-02T00:18:44;37.65;31.71;51.22;;
66452;Laerm;56831;52.380;4.744;2023-02-02T00:19:01;38.41;31.27;50.97;;
66452;Laerm;56831;52.380;4.744;2023-02-02T00:19:14;33.52;30.74;41.77;;
66452;Laerm;56831;52.380;4.744;2023-02-02T00:19:26;35.06;30.82;49.01;;
66452;Laerm;56831;52.380;4.744;2023-02-02T00:19:43;36.21;31.22;53.57;;
66452;Laerm;56831;52.380;4.744;2023-02-02T00:19:55;32.99;30.50;43.65;;
66452;Laerm;56831;52.380;4.744;2023-02-02T00:20:06;34.20;31.32;46.12;;
66452;Laerm;56831;52.380;4.744;2023-02-02T00:20:25;34.14;30.59;46.86;;
66452;Laerm;56831;52.380;4.744;2023-02-02T00:20:39;33.44;31.39;40.46;;
66452;Laerm;56831;52.380;4.744;2023-02-02T00:20:50;34.45;32.53;36.72;;
66452;Laerm;56831;52.380;4.744;2023-02-02T00:21:00;35.37;32.56;53.83;;
66452;Laerm;56831;52.380;4.744;2023-02-02T00:21:13;34.79;33.01;39.03;;
66452;Laerm;56831;52.380;4.744;2023-02-02T00:21:24;47.67;34.21;62.17;;
66452;Laerm;56831;52.380;4.744;2023-02-02T00:21:35;38.39;34.64;51.83;;
66452;Laerm;56831;52.380;4.744;2023-02-02T00:21:45;42.37;34.05;55.25;;
66452;Laerm;56831;52.380;4.744;2023-02-02T00:21:56;36.07;33.57;47.09;;
66452;Laerm;56831;52.380;4.744;2023-02-02T00:22:07;35.49;33.57;41.87;;
66452;Laerm;56831;52.380;4.744;2023-02-02T00:22:21;35.88;31.94;47.28;;
66452;Laerm;56831;52.380;4.744;2023-02-02T00:22:32;34.82;32.67;40.03;;
66452;Laerm;56831;52.380;4.744;2023-02-02T00:22:43;38.60;32.71;53.67;;
66452;Laerm;56831;52.380;4.744;2023-02-02T00:22:53;44.17;33.45;54.61;;
66452;Laerm;56831;52.380;4.744;2023-02-02T00:23:04;34.81;32.33;41.64;;
66452;Laerm;56831;52.380;4.744;2023-02-02T00:23:17;34.65;31.96;42.56;;
66452;Laerm;56831;52.380;4.744;2023-02-02T00:23:28;39.12;31.41;56.12;;
66452;Laerm;56831;52.380;4.744;2023-02-02T00:23:38;35.55;32.02;39.33;;
66452;Laerm;56831;52.380;4.744;2023-02-02T00:23:49;36.09;33.43;42.86;;
66452;Laerm;56831;52.380;4.744;2023-02-02T00:24:01;44.75;33.05;57.58;;
66452;Laerm;56831;52.380;4.744;2023-02-02T00:24:24;45.74;32.60;62.28;;
66452;Laerm;56831;52.380;4.744;2023-02-02T00:24:34;48.13;32.96;63.53;;
66452;Laerm;56831;52.380;4.744;2023-02-02T00:24:48;43.11;32.81;57.65;;
66452;Laerm;56831;52.380;4.744;2023-02-02T00:24:59;34.49;30.69;42.93;;
66452;Laerm;56831;52.380;4.744;2023-02-02T00:25:09;34.46;31.24;41.51;;
66452;Laerm;56831;52.380;4.744;2023-02-02T00:25:20;35.55;31.47;43.55;;
66452;Laerm;56831;52.380;4.744;2023-02-02T00:25:30;40.10;32.95;53.22;;
66452;Laerm;56831;52.380;4.744;2023-02-02T00:25:41;37.90;31.91;48.79;;
66452;Laerm;56831;52.380;4.744;2023-02-02T00:25:55;36.24;31.10;47.73;;
66452;Laerm;56831;52.380;4.744;2023-02-02T00:26:11;35.54;32.25;42.92;;
66452;Laerm;56831;52.380;4.744;2023-02-02T00:26:24;35.21;32.71;39.95;;
66452;Laerm;56831;52.380;4.744;2023-02-02T00:26:41;34.94;31.87;47.18;;
66452;Laerm;56831;52.380;4.744;2023-02-02T00:26:53;48.45;33.71;66.26;;
66452;Laerm;56831;52.380;4.744;2023-02-02T00:27:03;36.13;31.82;46.27;;
66452;Laerm;56831;52.380;4.744;2023-02-02T00:27:21;44.22;32.57;57.77;;
66452;Laerm;56831;52.380;4.744;2023-02-02T00:27:31;37.35;32.03;47.97;;
66452;Laerm;56831;52.380;4.744;2023-02-02T00:27:42;34.93;31.92;42.68;;
66452;Laerm;56831;52.380;4.744;2023-02-02T00:27:52;33.78;31.41;40.80;;
66452;Laerm;56831;52.380;4.744;2023-02-02T00:28:09;46.12;31.51;58.51;;
66452;Laerm;56831;52.380;4.744;2023-02-02T00:28:21;42.97;31.43;60.67;;
66452;Laerm;56831;52.380;4.744;2023-02-02T00:28:31;44.69;32.79;55.87;;
66452;Laerm;56831;52.380;4.744;2023-02-02T00:28:50;33.71;31.09;40.40;;
66452;Laerm;56831;52.380;4.744;2023-02-02T00:29:04;33.04;30.92;42.30;;
66452;Laerm;56831;52.380;4.744;2023-02-02T00:29:19;35.88;30.61;47.33;;
66452;Laerm;56831;52.380;4.744;2023-02-02T00:29:36;33.27;30.23;41.57;;
66452;Laerm;56831;52.380;4.744;2023-02-02T00:29:52;32.98;30.67;41.16;;
66452;Laerm;56831;52.380;4.744;2023-02-02T00:30:03;33.24;31.45;39.29;;
66452;Laerm;56831;52.380;4.744;2023-02-02T00:30:15;32.73;30.61;38.95;;
66452;Laerm;56831;52.380;4.744;2023-02-02T00:30:25;33.18;31.38;41.12;;
66452;Laerm;56831;52.380;4.744;2023-02-02T00:30:36;33.02;31.34;40.99;;
66452;Laerm;56831;52.380;4.744;2023-02-02T00:30:48;33.05;30.71;40.63;;
66452;Laerm;56831;52.380;4.744;2023-02-02T00:30:59;32.95;31.22;39.68;;
66452;Laerm;56831;52.380;4.744;2023-02-02T00:31:10;40.07;31.28;59.08;;
66452;Laerm;56831;52.380;4.744;2023-02-02T00:31:20;36.50;31.70;49.61;;
66452;Laerm;56831;52.380;4.744;2023-02-02T00:31:30;36.48;32.26;47.43;;
66452;Laerm;56831;52.380;4.744;2023-02-02T00:31:41;36.95;31.43;53.05;;
66452;Laerm;56831;52.380;4.744;2023-02-02T00:31:53;41.60;31.55;55.19;;
66452;Laerm;56831;52.380;4.744;2023-02-02T00:32:04;34.09;32.23;39.87;;
66452;Laerm;56831;52.380;4.744;2023-02-02T00:32:14;34.30;32.48;40.22;;
66452;Laerm;56831;52.380;4.744;2023-02-02T00:32:25;35.09;32.70;41.62;;
66452;Laerm;56831;52.380;4.744;2023-02-02T00:32:35;34.68;31.95;42.35;;
66452;Laerm;56831;52.380;4.744;2023-02-02T00:32:46;34.55;32.25;39.00;;
66452;Laerm;56831;52.380;4.744;2023-02-02T00:32:59;33.72;32.07;40.70;;
66452;Laerm;56831;52.380;4.744;2023-02-02T00:33:09;34.22;32.23;38.39;;
66452;Laerm;56831;52.380;4.744;2023-02-02T00:33:20;35.62;32.71;41.20;;
66452;Laerm;56831;52.380;4.744;2023-02-02T00:33:31;35.86;32.82;41.55;;
66452;Laerm;56831;52.380;4.744;2023-02-02T00:33:45;35.50;33.05;42.58;;
66452;Laerm;56831;52.380;4.744;2023-02-02T00:33:55;34.24;32.09;40.96;;
66452;Laerm;56831;52.380;4.744;2023-02-02T00:34:06;35.83;32.70;44.95;;
66452;Laerm;56831;52.380;4.744;2023-02-02T00:34:16;33.84;31.82;38.20;;
66452;Laerm;56831;52.380;4.744;2023-02-02T00:34:27;37.60;32.06;50.37;;
66452;Laerm;56831;52.380;4.744;2023-02-02T00:34:39;34.14;32.05;38.57;;
66452;Laerm;56831;52.380;4.744;2023-02-02T00:34:50;35.21;32.61;42.37;;
66452;Laerm;56831;52.380;4.744;2023-02-02T00:35:07;33.66;31.63;39.62;;
66452;Laerm;56831;52.380;4.744;2023-02-02T00:35:26;34.37;31.32;51.09;;
66452;Laerm;56831;52.380;4.744;2023-02-02T00:35:38;33.43;31.28;41.02;;
66452;Laerm;56831;52.380;4.744;2023-02-02T00:35:50;36.66;31.50;50.60;;
66452;Laerm;56831;52.380;4.744;2023-02-02T00:36:07;34.72;31.45;44.54;;
66452;Laerm;56831;52.380;4.744;2023-02-02T00:36:18;35.84;32.35;47.86;;
66452;Laerm;56831;52.380;4.744;2023-02-02T00:36:29;34.15;32.11;38.58;;
66452;Laerm;56831;52.380;4.744;2023-02-02T00:36:41;34.32;32.16;38.66;;
66452;Laerm;56831;52.380;4.744;2023-02-02T00:36:53;36.29;31.57;51.71;;
66452;Laerm;56831;52.380;4.744;2023-02-02T00:37:06;32.77;31.10;39.65;;
66452;Laerm;56831;52.380;4.744;2023-02-02T00:37:22;32.52;31.06;34.64;;
66452;Laerm;56831;52.380;4.744;2023-02-02T00:37:33;33.15;31.08;47.45;;
66452;Laerm;56831;52.380;4.744;2023-02-02T00:37:44;32.97;31.13;46.75;;
66452;Laerm;56831;52.380;4.744;2023-02-02T00:37:55;32.70;31.38;36.22;;
66452;Laerm;56831;52.380;4.744;2023-02-02T00:38:06;32.67;31.14;38.46;;
66452;Laerm;56831;52.380;4.744;2023-02-02T00:38:17;33.09;31.35;42.90;;
66452;Laerm;56831;52.380;4.744;2023-02-02T00:38:33;33.00;31.27;40.82;;
66452;Laerm;56831;52.380;4.744;2023-02-02T00:38:47;33.44;31.74;43.14;;
66452;Laerm;56831;52.380;4.744;2023-02-02T00:38:58;35.76;32.13;47.68;;
66452;Laerm;56831;52.380;4.744;2023-02-02T00:39:09;34.42;31.81;41.34;;
66452;Laerm;56831;52.380;4.744;2023-02-02T00:39:39;44.39;32.36;62.43;;
66452;Laerm;56831;52.380;4.744;2023-02-02T00:39:49;37.32;33.78;43.61;;
66452;Laerm;56831;52.380;4.744;2023-02-02T00:40:00;33.81;32.10;38.23;;
66452;Laerm;56831;52.380;4.744;2023-02-02T00:40:11;33.62;31.95;43.57;;
66452;Laerm;56831;52.380;4.744;2023-02-02T00:40:21;34.46;31.56;39.37;;
66452;Laerm;56831;52.380;4.744;2023-02-02T00:40:32;38.54;35.59;50.45;;
66452;Laerm;56831;52.380;4.744;2023-02-02T00:40:43;40.34;36.51;57.25;;
66452;Laerm;56831;52.380;4.744;2023-02-02T00:40:53;41.24;36.83;57.50;;
66452;Laerm;56831;52.380;4.744;2023-02-02T00:41:09;44.02;38.39;54.75;;
66452;Laerm;56831;52.380;4.744;2023-02-02T00:41:20;44.14;37.90;60.93;;
66452;Laerm;56831;52.380;4.744;2023-02-02T00:41:31;42.29;39.63;47.59;;
66452;Laerm;56831;52.380;4.744;2023-02-02T00:41:41;41.98;38.90;57.52;;
66452;Laerm;56831;52.380;4.744;2023-02-02T00:41:52;39.82;37.92;43.61;;
66452;Laerm;56831;52.380;4.744;2023-02-02T00:42:02;42.80;39.67;47.61;;
66452;Laerm;56831;52.380;4.744;2023-02-02T00:42:14;43.18;40.12;49.38;;
66452;Laerm;56831;52.380;4.744;2023-02-02T00:42:24;48.18;41.72;60.83;;
66452;Laerm;56831;52.380;4.744;2023-02-02T00:42:38;46.68;42.41;54.13;;
66452;Laerm;56831;52.380;4.744;2023-02-02T00:42:49;44.26;41.51;56.87;;
66452;Laerm;56831;52.380;4.744;2023-02-02T00:43:03;42.99;40.23;55.81;;
66452;Laerm;56831;52.380;4.744;2023-02-02T00:43:13;45.55;40.96;55.91;;
66452;Laerm;56831;52.380;4.744;2023-02-02T00:43:33;42.15;38.17;53.63;;
66452;Laerm;56831;52.380;4.744;2023-02-02T00:43:44;43.45;40.35;54.75;;
66452;Laerm;56831;52.380;4.744;2023-02-02T00:44:16;44.64;40.80;61.23;;
66452;Laerm;56831;52.380;4.744;2023-02-02T00:44:45;42.52;38.46;55.17;;
66452;Laerm;56831;52.380;4.744;2023-02-02T00:45:15;43.06;34.92;63.14;;
66452;Laerm;56831;52.380;4.744;2023-02-02T00:45:32;38.57;33.89;53.79;;
66452;Laerm;56831;52.380;4.744;2023-02-02T00:45:42;37.78;34.22;47.43;;
66452;Laerm;56831;52.380;4.744;2023-02-02T00:45:54;38.32;34.27;54.16;;
66452;Laerm;56831;52.380;4.744;2023-02-02T00:46:05;37.82;34.28;46.16;;
66452;Laerm;56831;52.380;4.744;2023-02-02T00:46:17;36.20;32.42;41.79;;
66452;Laerm;56831;52.380;4.744;2023-02-02T00:46:28;37.11;32.53;46.55;;
66452;Laerm;56831;52.380;4.744;2023-02-02T00:46:38;37.20;33.38;49.69;;
66452;Laerm;56831;52.380;4.744;2023-02-02T00:46:51;36.45;32.57;47.76;;
66452;Laerm;56831;52.380;4.744;2023-02-02T00:47:10;43.75;33.38;57.96;;
66452;Laerm;56831;52.380;4.744;2023-02-02T00:47:21;51.95;44.19;57.89;;
66452;Laerm;56831;52.380;4.744;2023-02-02T00:47:31;56.24;50.92;60.72;;
66452;Laerm;56831;52.380;4.744;2023-02-02T00:47:45;58.54;52.34;66.99;;
66452;Laerm;56831;52.380;4.744;2023-02-02T00:47:56;56.94;52.88;61.20;;
66452;Laerm;56831;52.380;4.744;2023-02-02T00:48:07;57.06;53.98;60.77;;
66452;Laerm;56831;52.380;4.744;2023-02-02T00:48:17;55.58;51.09;58.98;;
66452;Laerm;56831;52.380;4.744;2023-02-02T00:48:29;52.79;49.80;57.30;;
66452;Laerm;56831;52.380;4.744;2023-02-02T00:48:39;55.56;52.03;61.16;;
66452;Laerm;56831;52.380;4.744;2023-02-02T00:48:53;56.85;53.59;63.18;;
66452;Laerm;56831;52.380;4.744;2023-02-02T00:49:09;53.66;50.08;63.48;;
66452;Laerm;56831;52.380;4.744;2023-02-02T00:49:21;49.71;44.04;66.67;;
66452;Laerm;56831;52.380;4.744;2023-02-02T00:49:32;44.56;41.34;48.95;;
66452;Laerm;56831;52.380;4.744;2023-02-02T00:49:56;42.64;38.74;52.97;;
66452;Laerm;56831;52.380;4.744;2023-02-02T00:50:08;40.24;35.89;48.88;;
66452;Laerm;56831;52.380;4.744;2023-02-02T00:50:19;38.95;35.44;43.00;;
66452;Laerm;56831;52.380;4.744;2023-02-02T00:50:36;43.54;35.78;52.70;;
66452;Laerm;56831;52.380;4.744;2023-02-02T00:50:52;43.51;36.57;60.66;;
66452;Laerm;56831;52.380;4.744;2023-02-02T00:51:03;44.78;37.76;58.07;;
66452;Laerm;56831;52.380;4.744;2023-02-02T00:51:13;49.14;45.04;66.08;;
66452;Laerm;56831;52.380;4.744;2023-02-02T00:51:23;50.35;45.82;54.19;;
66452;Laerm;56831;52.380;4.744;2023-02-02T00:51:49;50.99;46.95;63.83;;
66452;Laerm;56831;52.380;4.744;2023-02-02T00:52:05;53.94;50.91;60.20;;
66452;Laerm;56831;52.380;4.744;2023-02-02T00:52:16;51.58;47.34;56.62;;
66452;Laerm;56831;52.380;4.744;2023-02-02T00:52:26;51.92;48.38;58.26;;
66452;Laerm;56831;52.380;4.744;2023-02-02T00:52:37;51.38;48.44;56.03;;
66452;Laerm;56831;52.380;4.744;2023-02-02T00:52:49;53.89;49.57;70.99;;
66452;Laerm;56831;52.380;4.744;2023-02-02T00:53:00;52.31;48.66;62.57;;
66452;Laerm;56831;52.380;4.744;2023-02-02T00:53:10;51.01;48.27;55.09;;
66452;Laerm;56831;52.380;4.744;2023-02-02T00:53:20;52.62;48.12;59.86;;
66452;Laerm;56831;52.380;4.744;2023-02-02T00:53:31;51.62;48.45;56.26;;
66452;Laerm;56831;52.380;4.744;2023-02-02T00:53:41;51.30;47.72;68.50;;
66452;Laerm;56831;52.380;4.744;2023-02-02T00:53:52;51.21;47.56;66.89;;
66452;Laerm;56831;52.380;4.744;2023-02-02T00:54:02;51.80;46.57;70.00;;
66452;Laerm;56831;52.380;4.744;2023-02-02T00:54:13;52.43;49.22;57.73;;
66452;Laerm;56831;52.380;4.744;2023-02-02T00:54:23;52.84;49.91;56.05;;
66452;Laerm;56831;52.380;4.744;2023-02-02T00:54:34;51.21;49.20;54.72;;
66452;Laerm;56831;52.380;4.744;2023-02-02T00:54:44;52.33;48.62;62.34;;
66452;Laerm;56831;52.380;4.744;2023-02-02T00:54:55;51.22;48.49;54.89;;
66452;Laerm;56831;52.380;4.744;2023-02-02T00:55:05;52.70;49.44;68.26;;
66452;Laerm;56831;52.380;4.744;2023-02-02T00:55:16;51.49;49.13;54.48;;
66452;Laerm;56831;52.380;4.744;2023-02-02T00:55:26;51.46;46.37;55.54;;
66452;Laerm;56831;52.380;4.744;2023-02-02T00:55:37;44.80;41.31;48.86;;
66452;Laerm;56831;52.380;4.744;2023-02-02T00:55:47;42.21;38.91;49.62;;
66452;Laerm;56831;52.380;4.744;2023-02-02T00:55:57;40.90;38.08;49.25;;
66452;Laerm;56831;52.380;4.744;2023-02-02T00:56:07;40.76;37.95;50.89;;
66452;Laerm;56831;52.380;4.744;2023-02-02T00:56:18;41.48;37.94;49.19;;
66452;Laerm;56831;52.380;4.744;2023-02-02T00:56:28;43.00;37.41;59.89;;
66452;Laerm;56831;52.380;4.744;2023-02-02T00:56:39;41.88;38.42;53.86;;
66452;Laerm;56831;52.380;4.744;2023-02-02T00:56:49;41.52;38.41;52.80;;
66452;Laerm;56831;52.380;4.744;2023-02-02T00:57:00;41.44;38.90;46.40;;
66452;Laerm;56831;52.380;4.744;2023-02-02T00:57:11;43.30;40.73;46.42;;
66452;Laerm;56831;52.380;4.744;2023-02-02T00:57:22;46.85;41.98;67.60;;
66452;Laerm;56831;52.380;4.744;2023-02-02T00:57:32;46.15;42.77;52.49;;
66452;Laerm;56831;52.380;4.744;2023-02-02T00:57:42;46.64;42.89;51.09;;
66452;Laerm;56831;52.380;4.744;2023-02-02T00:57:56;44.46;40.53;53.64;;
66452;Laerm;56831;52.380;4.744;2023-02-02T00:58:07;41.88;38.62;52.05;;
66452;Laerm;56831;52.380;4.744;2023-02-02T00:58:18;44.93;41.46;56.44;;
66452;Laerm;56831;52.380;4.744;2023-02-02T00:58:28;45.18;42.40;58.54;;
66452;Laerm;56831;52.380;4.744;2023-02-02T00:58:38;42.69;39.23;55.73;;
66452;Laerm;56831;52.380;4.744;2023-02-02T00:58:49;44.23;40.15;53.28;;
66452;Laerm;56831;52.380;4.744;2023-02-02T00:58:59;47.99;43.49;54.21;;
66452;Laerm;56831;52.380;4.744;2023-02-02T00:59:09;49.42;45.36;64.66;;
66452;Laerm;56831;52.380;4.744;2023-02-02T00:59:20;46.77;44.29;53.31;;
66452;Laerm;56831;52.380;4.744;2023-02-02T00:59:30;45.68;43.58;50.49;;
66452;Laerm;56831;52.380;4.744;2023-02-02T00:59:41;51.06;42.49;73.69;;
66452;Laerm;56831;52.380;4.744;2023-02-02T00:59:51;50.94;46.14;65.10;;
66452;Laerm;56831;52.380;4.744;2023-02-02T01:00:02;51.76;48.39;55.07;;
66452;Laerm;56831;52.380;4.744;2023-02-02T01:00:14;51.61;47.97;63.58;;
66452;Laerm;56831;52.380;4.744;2023-02-02T01:00:25;50.56;46.43;57.36;;
66452;Laerm;56831;52.380;4.744;2023-02-02T01:00:36;50.28;46.77;58.23;;
66452;Laerm;56831;52.380;4.744;2023-02-02T01:00:46;49.05;46.60;57.52;;
66452;Laerm;56831;52.380;4.744;2023-02-02T01:00:57;47.11;43.89;51.20;;
66452;Laerm;56831;52.380;4.744;2023-02-02T01:01:16;45.65;42.51;50.06;;
66452;Laerm;56831;52.380;4.744;2023-02-02T01:01:27;45.34;40.78;51.49;;
66452;Laerm;56831;52.380;4.744;2023-02-02T01:01:39;46.75;43.57;50.76;;
66452;Laerm;56831;52.380;4.744;2023-02-02T01:01:49;45.99;43.16;50.03;;
66452;Laerm;56831;52.380;4.744;2023-02-02T01:01:59;44.75;41.82;49.33;;
66452;Laerm;56831;52.380;4.744;2023-02-02T01:02:11;46.91;40.92;67.18;;
66452;Laerm;56831;52.380;4.744;2023-02-02T01:02:21;44.48;40.20;52.84;;
66452;Laerm;56831;52.380;4.744;2023-02-02T01:02:32;40.35;35.27;53.50;;
66452;Laerm;56831;52.380;4.744;2023-02-02T01:02:43;37.96;34.44;49.93;;
66452;Laerm;56831;52.380;4.744;2023-02-02T01:02:53;37.54;33.73;49.41;;
66452;Laerm;56831;52.380;4.744;2023-02-02T01:03:04;36.09;33.00;41.75;;
66452;Laerm;56831;52.380;4.744;2023-02-02T01:03:16;36.07;32.16;48.16;;
66452;Laerm;56831;52.380;4.744;2023-02-02T01:03:26;36.03;31.87;48.97;;
66452;Laerm;56831;52.380;4.744;2023-02-02T01:03:37;35.36;32.30;43.42;;
66452;Laerm;56831;52.380;4.744;2023-02-02T01:03:47;36.07;31.86;48.33;;
66452;Laerm;56831;52.380;4.744;2023-02-02T01:03:58;35.24;31.59;45.01;;
66452;Laerm;56831;52.380;4.744;2023-02-02T01:04:09;34.86;31.18;39.51;;
66452;Laerm;56831;52.380;4.744;2023-02-02T01:04:19;35.00;31.35;47.66;;
66452;Laerm;56831;52.380;4.744;2023-02-02T01:04:29;36.21;31.48;41.80;;
66452;Laerm;56831;52.380;4.744;2023-02-02T01:04:40;37.34;31.19;47.85;;
66452;Laerm;56831;52.380;4.744;2023-02-02T01:04:50;36.78;31.54;49.76;;
66452;Laerm;56831;52.380;4.744;2023-02-02T01:05:01;35.56;31.42;42.67;;
66452;Laerm;56831;52.380;4.744;2023-02-02T01:05:12;34.55;31.35;48.22;;
66452;Laerm;56831;52.380;4.744;2023-02-02T01:05:22;33.39;30.89;39.42;;
66452;Laerm;56831;52.380;4.744;2023-02-02T01:05:33;34.60;30.60;44.10;;
66452;Laerm;56831;52.380;4.744;2023-02-02T01:05:43;34.59;31.48;45.07;;
66452;Laerm;56831;52.380;4.744;2023-02-02T01:05:54;34.06;31.31;39.54;;
66452;Laerm;56831;52.380;4.744;2023-02-02T01:06:04;34.37;30.73;43.78;;
66452;Laerm;56831;52.380;4.744;2023-02-02T01:06:15;38.27;31.34;49.35;;
66452;Laerm;56831;52.380;4.744;2023-02-02T01:06:25;37.17;31.14;52.25;;
66452;Laerm;56831;52.380;4.744;2023-02-02T01:06:36;33.62;30.74;40.61;;
66452;Laerm;56831;52.380;4.744;2023-02-02T01:06:46;33.69;31.05;42.40;;
66452;Laerm;56831;52.380;4.744;2023-02-02T01:06:57;34.93;31.33;43.64;;
66452;Laerm;56831;52.380;4.744;2023-02-02T01:07:07;36.32;31.44;43.15;;
66452;Laerm;56831;52.380;4.744;2023-02-02T01:07:17;35.04;31.40;41.19;;
66452;Laerm;56831;52.380;4.744;2023-02-02T01:07:28;34.55;30.42;43.31;;
66452;Laerm;56831;52.380;4.744;2023-02-02T01:07:38;37.99;31.02;47.95;;
66452;Laerm;56831;52.380;4.744;2023-02-02T01:07:49;35.96;32.11;43.10;;
66452;Laerm;56831;52.380;4.744;2023-02-02T01:07:59;36.39;32.51;46.26;;
66452;Laerm;56831;52.380;4.744;2023-02-02T01:08:10;36.20;32.23;46.65;;
66452;Laerm;56831;52.380;4.744;2023-02-02T01:08:20;34.29;31.30;42.43;;